sensor_id;sensor_type;location;lat;lon;timestamp;temperature;humidity
3380;DHT22;1703;51.964;7.642;2022-11-10T00:02:03;11.30;99.90
3380;DHT22;1703;51.964;7.642;2022-11-10T00:04:49;11.30;99.90
3380;DHT22;1703;51.964;7.642;2022-11-10T00:07:34;11.20;99.90
3380;DHT22;1703;51.964;7.642;2022-11-10T00:10:19;11.30;99.90
3380;DHT22;1703;51.964;7.642;2022-11-10T00:13:05;11.30;99.90
3380;DHT22;1703;51.964;7.642;2022-11-10T00:15:52;11.30;99.90
3380;DHT22;1703;51.964;7.642;2022-11-10T00:18:55;11.30;99.90
3380;DHT22;1703;51.964;7.642;2022-11-10T00:21:40;11.30;99.90
3380;DHT22;1703;51.964;7.642;2022-11-10T00:24:26;11.40;99.90
3380;DHT22;1703;51.964;7.642;2022-11-10T00:27:12;11.30;99.90
3380;DHT22;1703;51.964;7.642;2022-11-10T00:29:57;11.40;99.90
3380;DHT22;1703;51.964;7.642;2022-11-10T00:32:45;11.40;99.90
3380;DHT22;1703;51.964;7.642;2022-11-10T00:35:31;11.30;99.90
3380;DHT22;1703;51.964;7.642;2022-11-10T00:38:16;11.30;99.90
3380;DHT22;1703;51.964;7.642;2022-11-10T00:41:02;11.20;99.90
3380;DHT22;1703;51.964;7.642;2022-11-10T00:43:47;11.20;99.90
3380;DHT22;1703;51.964;7.642;2022-11-10T00:46:33;11.20;99.90
3380;DHT22;1703;51.964;7.642;2022-11-10T00:49:20;11.20;99.90
3380;DHT22;1703;51.964;7.642;2022-11-10T00:52:06;11.10;99.90
3380;DHT22;1703;51.964;7.642;2022-11-10T00:54:51;11.10;99.90
3380;DHT22;1703;51.964;7.642;2022-11-10T00:57:37;11.10;99.90
3380;DHT22;1703;51.964;7.642;2022-11-10T01:00:22;11.10;99.90
3380;DHT22;1703;51.964;7.642;2022-11-10T01:03:12;11.10;99.90
3380;DHT22;1703;51.964;7.642;2022-11-10T01:06:03;11.20;99.90
3380;DHT22;1703;51.964;7.642;2022-11-10T01:08:49;11.20;99.90
3380;DHT22;1703;51.964;7.642;2022-11-10T01:11:34;11.10;99.90
3380;DHT22;1703;51.964;7.642;2022-11-10T01:14:20;11.20;99.90
3380;DHT22;1703;51.964;7.642;2022-11-10T01:17:05;11.20;99.90
3380;DHT22;1703;51.964;7.642;2022-11-10T01:19:51;11.20;99.90
3380;DHT22;1703;51.964;7.642;2022-11-10T01:22:37;11.20;99.90
3380;DHT22;1703;51.964;7.642;2022-11-10T01:25:23;11.30;99.90
3380;DHT22;1703;51.964;7.642;2022-11-10T01:28:09;11.20;99.90
3380;DHT22;1703;51.964;7.642;2022-11-10T01:30:58;11.10;99.90
3380;DHT22;1703;51.964;7.642;2022-11-10T01:33:43;11.10;99.90
3380;DHT22;1703;51.964;7.642;2022-11-10T01:36:28;11.00;99.90
3380;DHT22;1703;51.964;7.642;2022-11-10T01:39:15;11.10;99.90
3380;DHT22;1703;51.964;7.642;2022-11-10T01:42:01;11.10;99.90
3380;DHT22;1703;51.964;7.642;2022-11-10T01:48:16;11.10;99.90
3380;DHT22;1703;51.964;7.642;2022-11-10T01:51:05;11.10;99.90
3380;DHT22;1703;51.964;7.642;2022-11-10T01:53:55;11.00;99.90
3380;DHT22;1703;51.964;7.642;2022-11-10T01:56:49;11.00;99.90
3380;DHT22;1703;51.964;7.642;2022-11-10T01:59:39;11.00;99.90
3380;DHT22;1703;51.964;7.642;2022-11-10T02:02:29;11.00;99.90
3380;DHT22;1703;51.964;7.642;2022-11-10T02:05:15;11.00;99.90
3380;DHT22;1703;51.964;7.642;2022-11-10T02:08:01;11.10;99.90
3380;DHT22;1703;51.964;7.642;2022-11-10T02:10:47;11.10;99.90
3380;DHT22;1703;51.964;7.642;2022-11-10T02:13:34;11.00;99.90
3380;DHT22;1703;51.964;7.642;2022-11-10T02:16:20;10.90;99.90
3380;DHT22;1703;51.964;7.642;2022-11-10T02:19:14;11.00;99.90
3380;DHT22;1703;51.964;7.642;2022-11-10T02:22:01;10.90;99.90
3380;DHT22;1703;51.964;7.642;2022-11-10T02:24:46;10.90;99.90
3380;DHT22;1703;51.964;7.642;2022-11-10T02:27:32;10.90;99.90
3380;DHT22;1703;51.964;7.642;2022-11-10T02:30:17;10.90;99.90
3380;DHT22;1703;51.964;7.642;2022-11-10T02:33:03;10.90;99.90
3380;DHT22;1703;51.964;7.642;2022-11-10T02:35:48;10.90;99.90
3380;DHT22;1703;51.964;7.642;2022-11-10T02:38:35;10.90;99.90
3380;DHT22;1703;51.964;7.642;2022-11-10T02:41:21;10.90;99.90
3380;DHT22;1703;51.964;7.642;2022-11-10T02:44:07;10.90;99.90
3380;DHT22;1703;51.964;7.642;2022-11-10T02:46:52;11.00;99.90
3380;DHT22;1703;51.964;7.642;2022-11-10T02:49:38;11.00;99.90
3380;DHT22;1703;51.964;7.642;2022-11-10T02:52:23;11.00;99.90
3380;DHT22;1703;51.964;7.642;2022-11-10T02:55:10;11.00;99.90
3380;DHT22;1703;51.964;7.642;2022-11-10T02:57:56;11.00;99.90
3380;DHT22;1703;51.964;7.642;2022-11-10T03:00:41;11.00;99.90
3380;DHT22;1703;51.964;7.642;2022-11-10T03:03:26;11.00;99.90
3380;DHT22;1703;51.964;7.642;2022-11-10T03:06:12;11.00;99.90
3380;DHT22;1703;51.964;7.642;2022-11-10T03:08:58;11.10;99.90
3380;DHT22;1703;51.964;7.642;2022-11-10T03:11:44;11.10;99.90
3380;DHT22;1703;51.964;7.642;2022-11-10T03:14:30;11.10;99.90
3380;DHT22;1703;51.964;7.642;2022-11-10T03:17:15;11.10;99.90
3380;DHT22;1703;51.964;7.642;2022-11-10T03:20:01;11.10;99.90
3380;DHT22;1703;51.964;7.642;2022-11-10T03:22:47;11.10;99.90
3380;DHT22;1703;51.964;7.642;2022-11-10T03:25:32;11.10;99.90
3380;DHT22;1703;51.964;7.642;2022-11-10T03:28:19;11.20;99.90
3380;DHT22;1703;51.964;7.642;2022-11-10T03:31:05;11.20;99.90
3380;DHT22;1703;51.964;7.642;2022-11-10T03:33:50;11.20;99.90
3380;DHT22;1703;51.964;7.642;2022-11-10T03:36:36;11.20;99.90
3380;DHT22;1703;51.964;7.642;2022-11-10T03:39:21;11.20;99.90
3380;DHT22;1703;51.964;7.642;2022-11-10T03:42:07;11.20;99.90
3380;DHT22;1703;51.964;7.642;2022-11-10T03:44:54;11.20;99.90
3380;DHT22;1703;51.964;7.642;2022-11-10T03:47:39;11.20;99.90
3380;DHT22;1703;51.964;7.642;2022-11-10T03:50:25;11.20;99.90
3380;DHT22;1703;51.964;7.642;2022-11-10T03:53:11;11.20;99.90
3380;DHT22;1703;51.964;7.642;2022-11-10T03:55:59;11.20;99.90
3380;DHT22;1703;51.964;7.642;2022-11-10T03:58:44;11.10;99.90
3380;DHT22;1703;51.964;7.642;2022-11-10T04:01:31;11.20;99.90
3380;DHT22;1703;51.964;7.642;2022-11-10T04:04:16;11.10;99.90
3380;DHT22;1703;51.964;7.642;2022-11-10T04:07:16;11.20;99.90
3380;DHT22;1703;51.964;7.642;2022-11-10T04:10:19;11.20;99.90
3380;DHT22;1703;51.964;7.642;2022-11-10T04:13:05;11.10;99.90
3380;DHT22;1703;51.964;7.642;2022-11-10T04:16:08;11.10;99.90
3380;DHT22;1703;51.964;7.642;2022-11-10T04:18:55;11.10;99.90
3380;DHT22;1703;51.964;7.642;2022-11-10T04:21:41;11.10;99.90
3380;DHT22;1703;51.964;7.642;2022-11-10T04:24:26;11.20;99.90
3380;DHT22;1703;51.964;7.642;2022-11-10T04:27:12;11.10;99.90
3380;DHT22;1703;51.964;7.642;2022-11-10T04:29:58;11.20;99.90
3380;DHT22;1703;51.964;7.642;2022-11-10T04:32:43;11.10;99.90
3380;DHT22;1703;51.964;7.642;2022-11-10T04:35:30;11.10;99.90
3380;DHT22;1703;51.964;7.642;2022-11-10T04:38:16;11.10;99.90
3380;DHT22;1703;51.964;7.642;2022-11-10T04:41:02;11.10;99.90
3380;DHT22;1703;51.964;7.642;2022-11-10T04:43:48;11.10;99.90
3380;DHT22;1703;51.964;7.642;2022-11-10T04:46:35;11.10;99.90
3380;DHT22;1703;51.964;7.642;2022-11-10T04:49:21;11.00;99.90
3380;DHT22;1703;51.964;7.642;2022-11-10T04:52:08;10.90;99.90
3380;DHT22;1703;51.964;7.642;2022-11-10T04:54:53;11.00;99.90
3380;DHT22;1703;51.964;7.642;2022-11-10T04:57:39;11.00;99.90
3380;DHT22;1703;51.964;7.642;2022-11-10T05:00:26;10.90;99.90
3380;DHT22;1703;51.964;7.642;2022-11-10T05:03:11;11.00;99.90
3380;DHT22;1703;51.964;7.642;2022-11-10T05:05:57;11.00;99.90
3380;DHT22;1703;51.964;7.642;2022-11-10T05:08:44;10.90;99.90
3380;DHT22;1703;51.964;7.642;2022-11-10T05:11:30;10.90;99.90
3380;DHT22;1703;51.964;7.642;2022-11-10T05:14:16;11.00;99.90
3380;DHT22;1703;51.964;7.642;2022-11-10T05:17:01;10.90;99.90
3380;DHT22;1703;51.964;7.642;2022-11-10T05:19:47;10.90;99.90
3380;DHT22;1703;51.964;7.642;2022-11-10T05:22:32;10.90;99.90
3380;DHT22;1703;51.964;7.642;2022-11-10T05:25:19;10.80;99.90
3380;DHT22;1703;51.964;7.642;2022-11-10T05:28:05;10.80;99.90
3380;DHT22;1703;51.964;7.642;2022-11-10T05:30:51;10.80;99.90
3380;DHT22;1703;51.964;7.642;2022-11-10T05:33:37;10.80;99.90
3380;DHT22;1703;51.964;7.642;2022-11-10T05:36:22;10.80;99.90
3380;DHT22;1703;51.964;7.642;2022-11-10T05:39:08;10.80;99.90
3380;DHT22;1703;51.964;7.642;2022-11-10T05:41:55;10.80;99.90
3380;DHT22;1703;51.964;7.642;2022-11-10T05:44:40;10.80;99.90
3380;DHT22;1703;51.964;7.642;2022-11-10T05:47:26;10.80;99.90
3380;DHT22;1703;51.964;7.642;2022-11-10T05:50:11;10.80;99.90
3380;DHT22;1703;51.964;7.642;2022-11-10T05:52:57;10.80;99.90
3380;DHT22;1703;51.964;7.642;2022-11-10T05:55:43;10.70;99.90
3380;DHT22;1703;51.964;7.642;2022-11-10T05:58:29;10.70;99.90
3380;DHT22;1703;51.964;7.642;2022-11-10T06:01:15;10.80;99.90
3380;DHT22;1703;51.964;7.642;2022-11-10T06:04:00;10.70;99.90
3380;DHT22;1703;51.964;7.642;2022-11-10T06:06:46;10.80;99.90
3380;DHT22;1703;51.964;7.642;2022-11-10T06:09:31;10.70;99.90
3380;DHT22;1703;51.964;7.642;2022-11-10T06:12:17;10.70;99.90
3380;DHT22;1703;51.964;7.642;2022-11-10T06:15:05;10.70;99.90
3380;DHT22;1703;51.964;7.642;2022-11-10T06:17:51;10.70;99.90
3380;DHT22;1703;51.964;7.642;2022-11-10T06:20:37;10.80;99.90
3380;DHT22;1703;51.964;7.642;2022-11-10T06:23:22;10.80;99.90
3380;DHT22;1703;51.964;7.642;2022-11-10T06:26:08;10.90;99.90
3380;DHT22;1703;51.964;7.642;2022-11-10T06:28:53;10.90;99.90
3380;DHT22;1703;51.964;7.642;2022-11-10T06:31:40;10.90;99.90
3380;DHT22;1703;51.964;7.642;2022-11-10T06:34:25;10.90;99.90
3380;DHT22;1703;51.964;7.642;2022-11-10T06:37:11;10.90;99.90
3380;DHT22;1703;51.964;7.642;2022-11-10T06:39:56;10.90;99.90
3380;DHT22;1703;51.964;7.642;2022-11-10T06:42:42;10.90;99.90
3380;DHT22;1703;51.964;7.642;2022-11-10T06:45:28;10.90;99.90
3380;DHT22;1703;51.964;7.642;2022-11-10T06:48:14;10.90;99.90
3380;DHT22;1703;51.964;7.642;2022-11-10T06:51:00;10.90;99.90
3380;DHT22;1703;51.964;7.642;2022-11-10T06:53:46;10.90;99.90
3380;DHT22;1703;51.964;7.642;2022-11-10T06:56:31;10.90;99.90
3380;DHT22;1703;51.964;7.642;2022-11-10T06:59:18;10.90;99.90
3380;DHT22;1703;51.964;7.642;2022-11-10T07:02:03;10.90;99.90
3380;DHT22;1703;51.964;7.642;2022-11-10T07:04:50;10.90;99.90
3380;DHT22;1703;51.964;7.642;2022-11-10T07:07:35;10.80;99.90
3380;DHT22;1703;51.964;7.642;2022-11-10T07:10:21;10.80;99.90
3380;DHT22;1703;51.964;7.642;2022-11-10T07:13:06;10.80;99.90
3380;DHT22;1703;51.964;7.642;2022-11-10T07:15:51;10.80;99.90
3380;DHT22;1703;51.964;7.642;2022-11-10T07:18:37;10.80;99.90
3380;DHT22;1703;51.964;7.642;2022-11-10T07:21:24;10.80;99.90
3380;DHT22;1703;51.964;7.642;2022-11-10T07:24:09;10.80;99.90
3380;DHT22;1703;51.964;7.642;2022-11-10T07:26:55;10.80;99.90
3380;DHT22;1703;51.964;7.642;2022-11-10T07:29:41;10.80;99.90
3380;DHT22;1703;51.964;7.642;2022-11-10T07:32:26;10.80;99.90
3380;DHT22;1703;51.964;7.642;2022-11-10T07:35:12;10.80;99.90
3380;DHT22;1703;51.964;7.642;2022-11-10T07:38:01;10.80;99.90
3380;DHT22;1703;51.964;7.642;2022-11-10T07:40:50;10.80;99.90
3380;DHT22;1703;51.964;7.642;2022-11-10T07:43:35;10.80;99.90
3380;DHT22;1703;51.964;7.642;2022-11-10T07:46:20;10.80;99.90
3380;DHT22;1703;51.964;7.642;2022-11-10T07:49:06;10.80;99.90
3380;DHT22;1703;51.964;7.642;2022-11-10T07:51:51;10.90;99.90
3380;DHT22;1703;51.964;7.642;2022-11-10T07:54:41;10.90;99.90
3380;DHT22;1703;51.964;7.642;2022-11-10T07:57:46;10.90;99.90
3380;DHT22;1703;51.964;7.642;2022-11-10T08:00:38;10.90;99.90
3380;DHT22;1703;51.964;7.642;2022-11-10T08:03:35;10.90;99.90
3380;DHT22;1703;51.964;7.642;2022-11-10T08:06:24;11.00;99.90
3380;DHT22;1703;51.964;7.642;2022-11-10T08:09:09;11.00;99.90
3380;DHT22;1703;51.964;7.642;2022-11-10T08:11:58;11.00;99.90
3380;DHT22;1703;51.964;7.642;2022-11-10T08:14:44;11.00;99.90
3380;DHT22;1703;51.964;7.642;2022-11-10T08:17:29;11.00;99.90
3380;DHT22;1703;51.964;7.642;2022-11-10T08:20:15;11.00;99.90
3380;DHT22;1703;51.964;7.642;2022-11-10T08:23:02;11.10;99.90
3380;DHT22;1703;51.964;7.642;2022-11-10T08:25:48;11.20;99.90
3380;DHT22;1703;51.964;7.642;2022-11-10T08:28:37;11.20;99.90
3380;DHT22;1703;51.964;7.642;2022-11-10T08:31:23;11.20;99.90
3380;DHT22;1703;51.964;7.642;2022-11-10T08:34:08;11.20;99.90
3380;DHT22;1703;51.964;7.642;2022-11-10T08:36:54;11.30;99.90
3380;DHT22;1703;51.964;7.642;2022-11-10T08:39:39;11.20;99.90
3380;DHT22;1703;51.964;7.642;2022-11-10T08:42:25;11.20;99.90
3380;DHT22;1703;51.964;7.642;2022-11-10T08:45:12;11.30;99.90
3380;DHT22;1703;51.964;7.642;2022-11-10T08:47:59;11.20;99.90
3380;DHT22;1703;51.964;7.642;2022-11-10T08:50:45;11.40;99.90
3380;DHT22;1703;51.964;7.642;2022-11-10T08:53:32;11.40;99.90
3380;DHT22;1703;51.964;7.642;2022-11-10T08:56:18;11.40;99.90
3380;DHT22;1703;51.964;7.642;2022-11-10T08:59:03;11.40;99.90
3380;DHT22;1703;51.964;7.642;2022-11-10T09:01:50;11.40;99.90
3380;DHT22;1703;51.964;7.642;2022-11-10T09:04:35;11.50;99.90
3380;DHT22;1703;51.964;7.642;2022-11-10T09:07:23;11.90;99.90
3380;DHT22;1703;51.964;7.642;2022-11-10T09:10:15;12.10;99.90
3380;DHT22;1703;51.964;7.642;2022-11-10T09:13:04;12.30;99.90
3380;DHT22;1703;51.964;7.642;2022-11-10T09:15:53;12.60;99.90
3380;DHT22;1703;51.964;7.642;2022-11-10T09:18:40;12.70;99.90
3380;DHT22;1703;51.964;7.642;2022-11-10T09:21:25;12.70;99.90
3380;DHT22;1703;51.964;7.642;2022-11-10T09:24:10;12.60;99.90
3380;DHT22;1703;51.964;7.642;2022-11-10T09:26:56;12.50;99.90
3380;DHT22;1703;51.964;7.642;2022-11-10T09:29:42;12.40;99.90
3380;DHT22;1703;51.964;7.642;2022-11-10T09:32:27;12.50;99.90
3380;DHT22;1703;51.964;7.642;2022-11-10T09:35:16;12.60;99.90
3380;DHT22;1703;51.964;7.642;2022-11-10T09:38:02;12.60;99.90
3380;DHT22;1703;51.964;7.642;2022-11-10T09:40:55;12.60;99.90
3380;DHT22;1703;51.964;7.642;2022-11-10T09:43:46;12.60;99.90
3380;DHT22;1703;51.964;7.642;2022-11-10T09:46:38;12.60;99.90
3380;DHT22;1703;51.964;7.642;2022-11-10T09:49:30;12.60;99.90
3380;DHT22;1703;51.964;7.642;2022-11-10T09:52:18;12.70;99.90
3380;DHT22;1703;51.964;7.642;2022-11-10T09:55:17;12.70;99.90
3380;DHT22;1703;51.964;7.642;2022-11-10T09:58:05;12.70;99.90
3380;DHT22;1703;51.964;7.642;2022-11-10T10:00:58;12.80;99.90
3380;DHT22;1703;51.964;7.642;2022-11-10T10:03:53;12.80;99.90
3380;DHT22;1703;51.964;7.642;2022-11-10T10:06:46;12.90;99.90
3380;DHT22;1703;51.964;7.642;2022-11-10T10:09:41;13.00;99.90
3380;DHT22;1703;51.964;7.642;2022-11-10T10:12:48;13.00;99.90
3380;DHT22;1703;51.964;7.642;2022-11-10T10:15:41;13.10;99.90
3380;DHT22;1703;51.964;7.642;2022-11-10T10:18:32;13.10;99.90
3380;DHT22;1703;51.964;7.642;2022-11-10T10:21:28;13.10;99.90
3380;DHT22;1703;51.964;7.642;2022-11-10T10:24:17;13.20;99.90
3380;DHT22;1703;51.964;7.642;2022-11-10T10:27:10;13.20;99.90
3380;DHT22;1703;51.964;7.642;2022-11-10T10:29:56;13.20;99.90
3380;DHT22;1703;51.964;7.642;2022-11-10T10:32:41;13.30;99.90
3380;DHT22;1703;51.964;7.642;2022-11-10T10:35:27;13.40;99.90
3380;DHT22;1703;51.964;7.642;2022-11-10T10:38:22;13.40;99.90
3380;DHT22;1703;51.964;7.642;2022-11-10T10:41:13;13.40;99.90
3380;DHT22;1703;51.964;7.642;2022-11-10T10:44:08;13.40;99.90
3380;DHT22;1703;51.964;7.642;2022-11-10T10:46:56;13.50;99.90
3380;DHT22;1703;51.964;7.642;2022-11-10T10:49:42;13.60;99.90
3380;DHT22;1703;51.964;7.642;2022-11-10T10:52:27;13.60;99.90
3380;DHT22;1703;51.964;7.642;2022-11-10T10:55:13;13.70;99.90
3380;DHT22;1703;51.964;7.642;2022-11-10T10:58:00;13.70;99.90
3380;DHT22;1703;51.964;7.642;2022-11-10T11:00:49;13.70;99.90
3380;DHT22;1703;51.964;7.642;2022-11-10T11:03:41;13.60;99.90
3380;DHT22;1703;51.964;7.642;2022-11-10T11:06:27;13.60;99.90
3380;DHT22;1703;51.964;7.642;2022-11-10T11:09:18;13.50;99.90
3380;DHT22;1703;51.964;7.642;2022-11-10T11:12:05;13.60;99.90
3380;DHT22;1703;51.964;7.642;2022-11-10T11:15:10;13.70;99.90
3380;DHT22;1703;51.964;7.642;2022-11-10T11:17:59;13.70;99.90
3380;DHT22;1703;51.964;7.642;2022-11-10T11:20:50;13.70;99.90
3380;DHT22;1703;51.964;7.642;2022-11-10T11:23:48;13.70;99.90
3380;DHT22;1703;51.964;7.642;2022-11-10T11:26:44;13.70;99.90
3380;DHT22;1703;51.964;7.642;2022-11-10T11:29:49;13.80;99.90
3380;DHT22;1703;51.964;7.642;2022-11-10T11:36:03;13.90;99.90
3380;DHT22;1703;51.964;7.642;2022-11-10T11:38:53;13.90;99.90
3380;DHT22;1703;51.964;7.642;2022-11-10T11:41:45;13.90;99.90
3380;DHT22;1703;51.964;7.642;2022-11-10T11:44:46;13.90;99.90
3380;DHT22;1703;51.964;7.642;2022-11-10T11:47:44;14.00;99.90
3380;DHT22;1703;51.964;7.642;2022-11-10T11:50:40;14.10;99.90
3380;DHT22;1703;51.964;7.642;2022-11-10T11:53:38;14.10;99.90
3380;DHT22;1703;51.964;7.642;2022-11-10T11:56:27;14.20;99.90
3380;DHT22;1703;51.964;7.642;2022-11-10T11:59:37;14.30;99.90
3380;DHT22;1703;51.964;7.642;2022-11-10T12:05:45;14.40;99.90
3380;DHT22;1703;51.964;7.642;2022-11-10T12:08:44;14.40;99.90
3380;DHT22;1703;51.964;7.642;2022-11-10T12:11:41;14.50;99.90
3380;DHT22;1703;51.964;7.642;2022-11-10T12:14:36;14.50;99.90
3380;DHT22;1703;51.964;7.642;2022-11-10T12:17:35;14.60;99.90
3380;DHT22;1703;51.964;7.642;2022-11-10T12:20:31;14.70;99.90
3380;DHT22;1703;51.964;7.642;2022-11-10T12:23:23;14.70;99.90
3380;DHT22;1703;51.964;7.642;2022-11-10T12:26:21;14.70;99.90
3380;DHT22;1703;51.964;7.642;2022-11-10T12:29:17;14.70;99.90
3380;DHT22;1703;51.964;7.642;2022-11-10T12:32:10;14.80;99.90
3380;DHT22;1703;51.964;7.642;2022-11-10T12:35:01;14.80;99.90
3380;DHT22;1703;51.964;7.642;2022-11-10T12:37:52;14.90;99.90
3380;DHT22;1703;51.964;7.642;2022-11-10T12:40:41;15.00;99.90
3380;DHT22;1703;51.964;7.642;2022-11-10T12:43:34;15.10;99.90
3380;DHT22;1703;51.964;7.642;2022-11-10T12:46:22;15.10;99.90
3380;DHT22;1703;51.964;7.642;2022-11-10T12:49:15;15.00;99.90
3380;DHT22;1703;51.964;7.642;2022-11-10T12:52:05;14.90;99.90
3380;DHT22;1703;51.964;7.642;2022-11-10T12:54:54;14.80;99.90
3380;DHT22;1703;51.964;7.642;2022-11-10T12:57:40;14.80;99.90
3380;DHT22;1703;51.964;7.642;2022-11-10T13:00:29;14.80;99.90
3380;DHT22;1703;51.964;7.642;2022-11-10T13:03:24;14.90;99.90
3380;DHT22;1703;51.964;7.642;2022-11-10T13:06:23;14.90;99.90
3380;DHT22;1703;51.964;7.642;2022-11-10T13:09:21;14.90;99.90
3380;DHT22;1703;51.964;7.642;2022-11-10T13:12:16;14.90;99.90
3380;DHT22;1703;51.964;7.642;2022-11-10T13:22:03;14.90;99.90
3380;DHT22;1703;51.964;7.642;2022-11-10T13:24:49;14.90;99.90
3380;DHT22;1703;51.964;7.642;2022-11-10T13:27:59;14.90;99.90
3380;DHT22;1703;51.964;7.642;2022-11-10T13:30:45;15.00;99.90
3380;DHT22;1703;51.964;7.642;2022-11-10T13:33:36;14.90;99.90
3380;DHT22;1703;51.964;7.642;2022-11-10T13:36:35;14.90;99.90
3380;DHT22;1703;51.964;7.642;2022-11-10T13:39:24;14.90;99.90
3380;DHT22;1703;51.964;7.642;2022-11-10T13:42:17;14.90;99.90
3380;DHT22;1703;51.964;7.642;2022-11-10T13:45:27;14.90;99.90
3380;DHT22;1703;51.964;7.642;2022-11-10T13:48:22;14.90;99.90
3380;DHT22;1703;51.964;7.642;2022-11-10T13:51:30;15.00;99.90
3380;DHT22;1703;51.964;7.642;2022-11-10T13:54:34;15.00;99.90
3380;DHT22;1703;51.964;7.642;2022-11-10T13:57:28;15.00;99.90
3380;DHT22;1703;51.964;7.642;2022-11-10T14:00:26;15.00;99.90
3380;DHT22;1703;51.964;7.642;2022-11-10T14:06:42;15.00;99.90
3380;DHT22;1703;51.964;7.642;2022-11-10T14:09:34;15.00;99.90
3380;DHT22;1703;51.964;7.642;2022-11-10T14:12:26;15.10;99.90
3380;DHT22;1703;51.964;7.642;2022-11-10T14:15:16;15.20;99.90
3380;DHT22;1703;51.964;7.642;2022-11-10T14:18:13;15.20;99.90
3380;DHT22;1703;51.964;7.642;2022-11-10T14:21:01;15.20;99.90
3380;DHT22;1703;51.964;7.642;2022-11-10T14:23:49;15.20;99.90
3380;DHT22;1703;51.964;7.642;2022-11-10T14:26:41;15.20;99.90
3380;DHT22;1703;51.964;7.642;2022-11-10T14:29:30;15.20;99.90
3380;DHT22;1703;51.964;7.642;2022-11-10T14:32:19;15.30;99.90
3380;DHT22;1703;51.964;7.642;2022-11-10T14:35:18;15.40;99.90
3380;DHT22;1703;51.964;7.642;2022-11-10T14:38:12;15.30;99.90
3380;DHT22;1703;51.964;7.642;2022-11-10T14:41:00;15.20;99.90
3380;DHT22;1703;51.964;7.642;2022-11-10T14:44:00;15.20;99.90
3380;DHT22;1703;51.964;7.642;2022-11-10T14:46:45;15.10;99.90
3380;DHT22;1703;51.964;7.642;2022-11-10T14:49:31;15.00;99.90
3380;DHT22;1703;51.964;7.642;2022-11-10T14:52:16;15.00;99.90
3380;DHT22;1703;51.964;7.642;2022-11-10T14:55:07;14.90;99.90
3380;DHT22;1703;51.964;7.642;2022-11-10T14:57:56;14.80;99.90
3380;DHT22;1703;51.964;7.642;2022-11-10T15:00:44;14.80;99.90
3380;DHT22;1703;51.964;7.642;2022-11-10T15:03:33;14.80;99.90
3380;DHT22;1703;51.964;7.642;2022-11-10T15:06:20;14.80;99.90
3380;DHT22;1703;51.964;7.642;2022-11-10T15:09:12;14.70;99.90
3380;DHT22;1703;51.964;7.642;2022-11-10T15:12:19;14.70;99.90
3380;DHT22;1703;51.964;7.642;2022-11-10T15:15:16;14.70;99.90
3380;DHT22;1703;51.964;7.642;2022-11-10T15:18:05;14.70;99.90
3380;DHT22;1703;51.964;7.642;2022-11-10T15:20:59;14.60;99.90
3380;DHT22;1703;51.964;7.642;2022-11-10T15:23:46;14.60;99.90
3380;DHT22;1703;51.964;7.642;2022-11-10T15:26:38;14.60;99.90
3380;DHT22;1703;51.964;7.642;2022-11-10T15:29:24;14.50;99.90
3380;DHT22;1703;51.964;7.642;2022-11-10T15:32:14;14.50;99.90
3380;DHT22;1703;51.964;7.642;2022-11-10T15:35:20;14.50;99.90
3380;DHT22;1703;51.964;7.642;2022-11-10T15:38:28;14.40;99.90
3380;DHT22;1703;51.964;7.642;2022-11-10T15:41:20;14.40;99.90
3380;DHT22;1703;51.964;7.642;2022-11-10T15:44:14;14.40;99.90
3380;DHT22;1703;51.964;7.642;2022-11-10T15:46:59;14.40;99.90
3380;DHT22;1703;51.964;7.642;2022-11-10T15:49:45;14.40;99.90
3380;DHT22;1703;51.964;7.642;2022-11-10T15:52:32;14.30;99.90
3380;DHT22;1703;51.964;7.642;2022-11-10T15:55:18;14.30;99.90
3380;DHT22;1703;51.964;7.642;2022-11-10T15:58:07;14.20;99.90
3380;DHT22;1703;51.964;7.642;2022-11-10T16:00:53;14.20;99.90
3380;DHT22;1703;51.964;7.642;2022-11-10T16:03:39;14.10;99.90
3380;DHT22;1703;51.964;7.642;2022-11-10T16:06:24;14.10;99.90
3380;DHT22;1703;51.964;7.642;2022-11-10T16:09:12;14.10;99.90
3380;DHT22;1703;51.964;7.642;2022-11-10T16:11:57;14.00;99.90
3380;DHT22;1703;51.964;7.642;2022-11-10T16:14:46;14.00;99.90
3380;DHT22;1703;51.964;7.642;2022-11-10T16:17:33;13.90;99.90
3380;DHT22;1703;51.964;7.642;2022-11-10T16:20:19;13.90;99.90
3380;DHT22;1703;51.964;7.642;2022-11-10T16:23:04;13.80;99.90
3380;DHT22;1703;51.964;7.642;2022-11-10T16:25:52;13.80;99.90
3380;DHT22;1703;51.964;7.642;2022-11-10T16:28:39;13.80;99.90
3380;DHT22;1703;51.964;7.642;2022-11-10T16:31:27;13.90;99.90
3380;DHT22;1703;51.964;7.642;2022-11-10T16:34:14;13.80;99.90
3380;DHT22;1703;51.964;7.642;2022-11-10T16:37:00;13.80;99.90
3380;DHT22;1703;51.964;7.642;2022-11-10T16:39:45;13.80;99.90
3380;DHT22;1703;51.964;7.642;2022-11-10T16:42:32;13.70;99.90
3380;DHT22;1703;51.964;7.642;2022-11-10T16:45:19;13.70;99.90
3380;DHT22;1703;51.964;7.642;2022-11-10T16:48:05;13.60;99.90
3380;DHT22;1703;51.964;7.642;2022-11-10T16:50:52;13.60;99.90
3380;DHT22;1703;51.964;7.642;2022-11-10T16:53:38;13.60;99.90
3380;DHT22;1703;51.964;7.642;2022-11-10T16:56:24;13.60;99.90
3380;DHT22;1703;51.964;7.642;2022-11-10T16:59:11;13.50;99.90
3380;DHT22;1703;51.964;7.642;2022-11-10T17:01:57;13.50;99.90
3380;DHT22;1703;51.964;7.642;2022-11-10T17:04:43;13.50;99.90
3380;DHT22;1703;51.964;7.642;2022-11-10T17:07:29;13.50;99.90
3380;DHT22;1703;51.964;7.642;2022-11-10T17:10:15;13.40;99.90
3380;DHT22;1703;51.964;7.642;2022-11-10T17:13:01;13.40;99.90
3380;DHT22;1703;51.964;7.642;2022-11-10T17:15:49;13.50;99.90
3380;DHT22;1703;51.964;7.642;2022-11-10T17:18:36;13.40;99.90
3380;DHT22;1703;51.964;7.642;2022-11-10T17:21:22;13.40;99.90
3380;DHT22;1703;51.964;7.642;2022-11-10T17:24:11;13.40;99.90
3380;DHT22;1703;51.964;7.642;2022-11-10T17:26:56;13.40;99.90
3380;DHT22;1703;51.964;7.642;2022-11-10T17:29:42;13.40;99.90
3380;DHT22;1703;51.964;7.642;2022-11-10T17:32:29;13.40;99.90
3380;DHT22;1703;51.964;7.642;2022-11-10T17:35:14;13.40;99.90
3380;DHT22;1703;51.964;7.642;2022-11-10T17:38:00;13.30;99.90
3380;DHT22;1703;51.964;7.642;2022-11-10T17:40:45;13.30;99.90
3380;DHT22;1703;51.964;7.642;2022-11-10T17:43:31;13.30;99.90
3380;DHT22;1703;51.964;7.642;2022-11-10T17:46:16;13.20;99.90
3380;DHT22;1703;51.964;7.642;2022-11-10T17:49:03;13.20;99.90
3380;DHT22;1703;51.964;7.642;2022-11-10T17:51:48;13.20;99.90
3380;DHT22;1703;51.964;7.642;2022-11-10T17:54:34;13.20;99.90
3380;DHT22;1703;51.964;7.642;2022-11-10T17:57:20;13.20;99.90
3380;DHT22;1703;51.964;7.642;2022-11-10T18:00:07;13.20;99.90
3380;DHT22;1703;51.964;7.642;2022-11-10T18:02:52;13.10;99.90
3380;DHT22;1703;51.964;7.642;2022-11-10T18:05:40;13.10;99.90
3380;DHT22;1703;51.964;7.642;2022-11-10T18:08:25;13.10;99.90
3380;DHT22;1703;51.964;7.642;2022-11-10T18:11:12;13.10;99.90
3380;DHT22;1703;51.964;7.642;2022-11-10T18:13:59;13.10;99.90
3380;DHT22;1703;51.964;7.642;2022-11-10T18:16:45;13.10;99.90
3380;DHT22;1703;51.964;7.642;2022-11-10T18:19:30;13.10;99.90
3380;DHT22;1703;51.964;7.642;2022-11-10T18:22:17;13.00;99.90
3380;DHT22;1703;51.964;7.642;2022-11-10T18:25:06;13.00;99.90
3380;DHT22;1703;51.964;7.642;2022-11-10T18:27:52;13.00;99.90
3380;DHT22;1703;51.964;7.642;2022-11-10T18:30:37;13.00;99.90
3380;DHT22;1703;51.964;7.642;2022-11-10T18:33:23;13.00;99.90
3380;DHT22;1703;51.964;7.642;2022-11-10T18:36:09;13.00;99.90
3380;DHT22;1703;51.964;7.642;2022-11-10T18:38:56;13.00;99.90
3380;DHT22;1703;51.964;7.642;2022-11-10T18:41:41;13.00;99.90